sensor_id;sensor_type;location;lat;lon;timestamp;P1;durP1;ratioP1;P2;durP2;ratioP2
68196;SDS011;55019;49.382;11.358;2023-08-31T00:00:41;1.58;;;1.30;;
68196;SDS011;55019;49.382;11.358;2023-08-31T00:03:07;3.00;;;1.60;;
68196;SDS011;55019;49.382;11.358;2023-08-31T00:05:42;2.00;;;1.42;;
68196;SDS011;55019;49.382;11.358;2023-08-31T00:08:08;2.50;;;1.15;;
68196;SDS011;55019;49.382;11.358;2023-08-31T00:10:35;1.50;;;1.30;;
68196;SDS011;55019;49.382;11.358;2023-08-31T00:13:01;1.40;;;1.30;;
68196;SDS011;55019;49.382;11.358;2023-08-31T00:15:27;1.88;;;1.35;;
68196;SDS011;55019;49.382;11.358;2023-08-31T00:17:54;1.75;;;1.17;;
68196;SDS011;55019;49.382;11.358;2023-08-31T00:20:20;1.75;;;1.15;;
68196;SDS011;55019;49.382;11.358;2023-08-31T00:22:47;1.83;;;1.40;;
68196;SDS011;55019;49.382;11.358;2023-08-31T00:25:13;1.90;;;0.82;;
68196;SDS011;55019;49.382;11.358;2023-08-31T00:27:39;1.27;;;1.17;;
68196;SDS011;55019;49.382;11.358;2023-08-31T00:30:09;2.08;;;1.30;;
68196;SDS011;55019;49.382;11.358;2023-08-31T00:32:37;1.20;;;0.98;;
68196;SDS011;55019;49.382;11.358;2023-08-31T00:35:05;1.90;;;1.10;;
68196;SDS011;55019;49.382;11.358;2023-08-31T00:37:31;1.67;;;1.38;;
68196;SDS011;55019;49.382;11.358;2023-08-31T00:39:56;1.00;;;0.90;;
68196;SDS011;55019;49.382;11.358;2023-08-31T00:42:22;3.38;;;1.10;;
68196;SDS011;55019;49.382;11.358;2023-08-31T00:44:50;1.73;;;1.45;;
68196;SDS011;55019;49.382;11.358;2023-08-31T00:47:15;1.20;;;1.10;;
68196;SDS011;55019;49.382;11.358;2023-08-31T00:49:42;3.30;;;1.30;;
68196;SDS011;55019;49.382;11.358;2023-08-31T00:52:07;3.50;;;2.08;;
68196;SDS011;55019;49.382;11.358;2023-08-31T00:54:34;1.63;;;1.30;;
68196;SDS011;55019;49.382;11.358;2023-08-31T01:10:43;1.58;;;1.08;;
68196;SDS011;55019;49.382;11.358;2023-08-31T01:13:11;1.88;;;1.10;;
68196;SDS011;55019;49.382;11.358;2023-08-31T01:15:44;1.02;;;0.90;;
68196;SDS011;55019;49.382;11.358;2023-08-31T01:18:13;1.20;;;0.82;;
68196;SDS011;55019;49.382;11.358;2023-08-31T01:23:15;1.40;;;1.00;;
68196;SDS011;55019;49.382;11.358;2023-08-31T01:25:43;1.20;;;1.10;;
68196;SDS011;55019;49.382;11.358;2023-08-31T01:30:37;1.35;;;0.80;;
68196;SDS011;55019;49.382;11.358;2023-08-31T01:33:03;1.35;;;0.88;;
68196;SDS011;55019;49.382;11.358;2023-08-31T01:35:30;1.27;;;1.08;;
68196;SDS011;55019;49.382;11.358;2023-08-31T01:38:06;1.52;;;1.25;;
68196;SDS011;55019;49.382;11.358;2023-08-31T01:40:36;2.30;;;1.40;;
68196;SDS011;55019;49.382;11.358;2023-08-31T01:43:09;2.45;;;1.20;;
68196;SDS011;55019;49.382;11.358;2023-08-31T01:45:36;1.40;;;1.10;;
68196;SDS011;55019;49.382;11.358;2023-08-31T01:48:04;0.98;;;0.90;;
68196;SDS011;55019;49.382;11.358;2023-08-31T01:50:30;4.95;;;1.23;;
68196;SDS011;55019;49.382;11.358;2023-08-31T01:52:56;1.80;;;1.20;;
68196;SDS011;55019;49.382;11.358;2023-08-31T01:55:22;2.00;;;1.23;;
68196;SDS011;55019;49.382;11.358;2023-08-31T01:57:48;2.10;;;1.45;;
68196;SDS011;55019;49.382;11.358;2023-08-31T02:00:21;3.30;;;1.10;;
68196;SDS011;55019;49.382;11.358;2023-08-31T02:02:47;1.88;;;1.15;;
68196;SDS011;55019;49.382;11.358;2023-08-31T02:05:13;2.00;;;1.45;;
68196;SDS011;55019;49.382;11.358;2023-08-31T02:07:38;2.30;;;1.33;;
68196;SDS011;55019;49.382;11.358;2023-08-31T02:10:05;2.67;;;1.45;;
68196;SDS011;55019;49.382;11.358;2023-08-31T02:12:32;2.88;;;1.52;;
68196;SDS011;55019;49.382;11.358;2023-08-31T02:14:58;2.03;;;1.38;;
68196;SDS011;55019;49.382;11.358;2023-08-31T02:17:25;1.45;;;1.23;;
68196;SDS011;55019;49.382;11.358;2023-08-31T02:19:51;2.13;;;1.55;;
68196;SDS011;55019;49.382;11.358;2023-08-31T02:22:17;1.23;;;1.13;;
68196;SDS011;55019;49.382;11.358;2023-08-31T02:24:42;2.13;;;1.40;;
68196;SDS011;55019;49.382;11.358;2023-08-31T02:27:08;3.55;;;1.90;;
68196;SDS011;55019;49.382;11.358;2023-08-31T02:29:34;2.35;;;1.30;;
68196;SDS011;55019;49.382;11.358;2023-08-31T02:31:59;1.73;;;1.30;;
68196;SDS011;55019;49.382;11.358;2023-08-31T02:34:25;1.92;;;1.30;;
68196;SDS011;55019;49.382;11.358;2023-08-31T02:36:51;2.97;;;1.30;;
68196;SDS011;55019;49.382;11.358;2023-08-31T02:39:16;2.38;;;1.67;;
68196;SDS011;55019;49.382;11.358;2023-08-31T02:41:42;2.60;;;1.45;;
68196;SDS011;55019;49.382;11.358;2023-08-31T02:44:08;2.28;;;1.30;;
68196;SDS011;55019;49.382;11.358;2023-08-31T02:46:33;1.52;;;1.30;;
68196;SDS011;55019;49.382;11.358;2023-08-31T02:48:59;2.30;;;1.63;;
68196;SDS011;55019;49.382;11.358;2023-08-31T02:51:25;2.90;;;1.50;;
68196;SDS011;55019;49.382;11.358;2023-08-31T02:53:51;2.92;;;1.45;;
68196;SDS011;55019;49.382;11.358;2023-08-31T02:58:44;1.92;;;1.50;;
68196;SDS011;55019;49.382;11.358;2023-08-31T03:01:10;2.40;;;1.42;;
68196;SDS011;55019;49.382;11.358;2023-08-31T03:03:39;1.85;;;1.48;;
68196;SDS011;55019;49.382;11.358;2023-08-31T03:06:08;2.38;;;1.67;;
68196;SDS011;55019;49.382;11.358;2023-08-31T03:08:35;3.10;;;1.50;;
68196;SDS011;55019;49.382;11.358;2023-08-31T03:11:05;2.53;;;1.58;;
68196;SDS011;55019;49.382;11.358;2023-08-31T03:13:33;2.75;;;1.73;;
68196;SDS011;55019;49.382;11.358;2023-08-31T03:16:00;2.83;;;1.55;;
68196;SDS011;55019;49.382;11.358;2023-08-31T03:18:26;2.30;;;1.52;;
68196;SDS011;55019;49.382;11.358;2023-08-31T03:20:54;2.28;;;1.50;;
68196;SDS011;55019;49.382;11.358;2023-08-31T03:23:20;1.73;;;1.50;;
68196;SDS011;55019;49.382;11.358;2023-08-31T03:25:45;1.75;;;1.23;;
68196;SDS011;55019;49.382;11.358;2023-08-31T03:28:12;1.88;;;1.38;;
68196;SDS011;55019;49.382;11.358;2023-08-31T03:30:38;2.38;;;1.67;;
68196;SDS011;55019;49.382;11.358;2023-08-31T03:33:04;2.72;;;1.67;;
68196;SDS011;55019;49.382;11.358;2023-08-31T03:35:31;2.97;;;1.67;;
68196;SDS011;55019;49.382;11.358;2023-08-31T03:37:58;1.92;;;1.65;;
68196;SDS011;55019;49.382;11.358;2023-08-31T03:40:26;2.20;;;1.65;;
68196;SDS011;55019;49.382;11.358;2023-08-31T03:42:52;1.95;;;1.67;;
68196;SDS011;55019;49.382;11.358;2023-08-31T03:45:19;2.88;;;1.60;;
68196;SDS011;55019;49.382;11.358;2023-08-31T03:47:45;2.83;;;1.73;;
68196;SDS011;55019;49.382;11.358;2023-08-31T03:50:12;2.67;;;2.00;;
68196;SDS011;55019;49.382;11.358;2023-08-31T03:52:38;1.80;;;1.70;;
68196;SDS011;55019;49.382;11.358;2023-08-31T03:55:04;2.35;;;1.58;;
68196;SDS011;55019;49.382;11.358;2023-08-31T03:57:30;2.63;;;1.80;;
68196;SDS011;55019;49.382;11.358;2023-08-31T04:00:01;2.78;;;2.00;;
68196;SDS011;55019;49.382;11.358;2023-08-31T04:02:41;2.22;;;1.70;;
68196;SDS011;55019;49.382;11.358;2023-08-31T04:05:08;2.65;;;1.50;;
68196;SDS011;55019;49.382;11.358;2023-08-31T04:07:34;2.40;;;1.55;;
68196;SDS011;55019;49.382;11.358;2023-08-31T04:10:00;2.25;;;1.50;;
68196;SDS011;55019;49.382;11.358;2023-08-31T04:12:26;2.72;;;1.85;;
68196;SDS011;55019;49.382;11.358;2023-08-31T04:14:54;2.60;;;2.03;;
68196;SDS011;55019;49.382;11.358;2023-08-31T04:17:20;2.00;;;1.63;;
68196;SDS011;55019;49.382;11.358;2023-08-31T04:19:45;3.53;;;2.30;;
68196;SDS011;55019;49.382;11.358;2023-08-31T04:22:11;2.85;;;2.20;;
68196;SDS011;55019;49.382;11.358;2023-08-31T04:24:37;4.15;;;1.67;;
68196;SDS011;55019;49.382;11.358;2023-08-31T04:27:02;3.20;;;1.80;;
68196;SDS011;55019;49.382;11.358;2023-08-31T04:29:28;3.78;;;2.63;;
68196;SDS011;55019;49.382;11.358;2023-08-31T04:31:54;2.75;;;2.20;;
68196;SDS011;55019;49.382;11.358;2023-08-31T04:34:20;3.72;;;2.13;;
68196;SDS011;55019;49.382;11.358;2023-08-31T04:36:46;2.67;;;1.92;;
68196;SDS011;55019;49.382;11.358;2023-08-31T04:39:12;4.05;;;2.33;;
68196;SDS011;55019;49.382;11.358;2023-08-31T04:41:38;3.03;;;2.20;;
68196;SDS011;55019;49.382;11.358;2023-08-31T04:44:03;3.88;;;2.17;;
68196;SDS011;55019;49.382;11.358;2023-08-31T04:46:29;2.90;;;1.95;;
68196;SDS011;55019;49.382;11.358;2023-08-31T04:48:55;4.05;;;2.28;;
68196;SDS011;55019;49.382;11.358;2023-08-31T04:51:31;3.42;;;2.30;;
68196;SDS011;55019;49.382;11.358;2023-08-31T04:53:58;4.60;;;2.10;;
68196;SDS011;55019;49.382;11.358;2023-08-31T04:56:24;3.05;;;2.28;;
68196;SDS011;55019;49.382;11.358;2023-08-31T04:58:50;3.75;;;2.00;;
68196;SDS011;55019;49.382;11.358;2023-08-31T05:01:16;2.63;;;2.10;;
68196;SDS011;55019;49.382;11.358;2023-08-31T05:03:41;5.65;;;2.47;;
68196;SDS011;55019;49.382;11.358;2023-08-31T05:06:07;2.00;;;1.80;;
68196;SDS011;55019;49.382;11.358;2023-08-31T05:08:33;4.40;;;2.40;;
68196;SDS011;55019;49.382;11.358;2023-08-31T05:10:59;2.55;;;1.98;;
68196;SDS011;55019;49.382;11.358;2023-08-31T05:13:25;3.72;;;2.17;;
68196;SDS011;55019;49.382;11.358;2023-08-31T05:15:50;2.95;;;2.40;;
68196;SDS011;55019;49.382;11.358;2023-08-31T05:18:16;4.18;;;2.13;;
68196;SDS011;55019;49.382;11.358;2023-08-31T05:20:45;2.38;;;2.03;;
68196;SDS011;55019;49.382;11.358;2023-08-31T05:23:12;4.07;;;2.13;;
68196;SDS011;55019;49.382;11.358;2023-08-31T05:25:44;3.13;;;2.20;;
68196;SDS011;55019;49.382;11.358;2023-08-31T05:28:10;2.58;;;2.03;;
68196;SDS011;55019;49.382;11.358;2023-08-31T05:30:35;2.72;;;2.10;;
68196;SDS011;55019;49.382;11.358;2023-08-31T05:33:01;2.90;;;1.90;;
68196;SDS011;55019;49.382;11.358;2023-08-31T05:35:28;4.20;;;2.50;;
68196;SDS011;55019;49.382;11.358;2023-08-31T05:37:54;2.35;;;2.08;;
68196;SDS011;55019;49.382;11.358;2023-08-31T05:40:20;3.10;;;2.20;;
68196;SDS011;55019;49.382;11.358;2023-08-31T05:42:46;4.20;;;2.42;;
68196;SDS011;55019;49.382;11.358;2023-08-31T05:45:12;4.60;;;2.58;;
68196;SDS011;55019;49.382;11.358;2023-08-31T05:47:40;2.97;;;2.03;;
68196;SDS011;55019;49.382;11.358;2023-08-31T05:50:06;2.80;;;2.40;;
68196;SDS011;55019;49.382;11.358;2023-08-31T05:52:32;3.85;;;2.70;;
68196;SDS011;55019;49.382;11.358;2023-08-31T05:54:58;3.75;;;2.75;;
68196;SDS011;55019;49.382;11.358;2023-08-31T05:57:25;4.75;;;2.30;;
68196;SDS011;55019;49.382;11.358;2023-08-31T05:59:53;6.03;;;2.53;;
68196;SDS011;55019;49.382;11.358;2023-08-31T06:02:18;3.40;;;2.22;;
68196;SDS011;55019;49.382;11.358;2023-08-31T06:04:44;3.10;;;2.10;;
68196;SDS011;55019;49.382;11.358;2023-08-31T06:07:10;3.78;;;2.60;;
68196;SDS011;55019;49.382;11.358;2023-08-31T06:09:35;3.47;;;2.70;;
68196;SDS011;55019;49.382;11.358;2023-08-31T06:12:03;3.42;;;2.38;;
68196;SDS011;55019;49.382;11.358;2023-08-31T06:14:30;3.88;;;2.60;;
68196;SDS011;55019;49.382;11.358;2023-08-31T06:16:55;3.20;;;2.90;;
68196;SDS011;55019;49.382;11.358;2023-08-31T06:19:21;4.50;;;3.15;;
68196;SDS011;55019;49.382;11.358;2023-08-31T06:21:47;3.67;;;3.17;;
68196;SDS011;55019;49.382;11.358;2023-08-31T06:24:13;5.68;;;3.30;;
68196;SDS011;55019;49.382;11.358;2023-08-31T06:26:40;5.00;;;3.08;;
68196;SDS011;55019;49.382;11.358;2023-08-31T06:29:06;4.60;;;3.60;;
68196;SDS011;55019;49.382;11.358;2023-08-31T06:31:34;3.55;;;2.92;;
68196;SDS011;55019;49.382;11.358;2023-08-31T06:34:00;6.68;;;3.20;;
68196;SDS011;55019;49.382;11.358;2023-08-31T06:36:25;5.68;;;3.33;;
68196;SDS011;55019;49.382;11.358;2023-08-31T06:38:51;3.83;;;2.90;;
68196;SDS011;55019;49.382;11.358;2023-08-31T06:41:17;4.18;;;2.72;;
68196;SDS011;55019;49.382;11.358;2023-08-31T06:43:42;3.83;;;2.95;;
68196;SDS011;55019;49.382;11.358;2023-08-31T06:46:08;5.57;;;3.08;;
68196;SDS011;55019;49.382;11.358;2023-08-31T06:48:34;3.78;;;3.22;;
68196;SDS011;55019;49.382;11.358;2023-08-31T06:51:00;4.68;;;2.85;;
68196;SDS011;55019;49.382;11.358;2023-08-31T06:53:29;3.70;;;2.88;;
68196;SDS011;55019;49.382;11.358;2023-08-31T06:55:56;3.95;;;2.90;;
68196;SDS011;55019;49.382;11.358;2023-08-31T06:58:28;4.57;;;3.05;;
68196;SDS011;55019;49.382;11.358;2023-08-31T07:01:05;4.47;;;3.45;;
68196;SDS011;55019;49.382;11.358;2023-08-31T07:03:31;5.40;;;3.30;;
68196;SDS011;55019;49.382;11.358;2023-08-31T07:05:57;5.57;;;3.50;;
68196;SDS011;55019;49.382;11.358;2023-08-31T07:08:22;4.57;;;2.65;;
68196;SDS011;55019;49.382;11.358;2023-08-31T07:10:51;5.00;;;3.08;;
68196;SDS011;55019;49.382;11.358;2023-08-31T07:13:17;3.65;;;2.78;;
68196;SDS011;55019;49.382;11.358;2023-08-31T07:15:43;4.53;;;3.13;;
68196;SDS011;55019;49.382;11.358;2023-08-31T07:18:11;5.38;;;3.38;;
68196;SDS011;55019;49.382;11.358;2023-08-31T07:20:37;4.70;;;3.40;;
68196;SDS011;55019;49.382;11.358;2023-08-31T07:23:03;4.35;;;2.90;;
68196;SDS011;55019;49.382;11.358;2023-08-31T07:25:29;4.05;;;3.25;;
68196;SDS011;55019;49.382;11.358;2023-08-31T07:27:55;3.47;;;3.10;;
68196;SDS011;55019;49.382;11.358;2023-08-31T07:30:20;3.85;;;3.00;;
68196;SDS011;55019;49.382;11.358;2023-08-31T07:32:46;4.20;;;2.70;;
68196;SDS011;55019;49.382;11.358;2023-08-31T07:35:12;4.20;;;2.53;;
68196;SDS011;55019;49.382;11.358;2023-08-31T07:37:38;3.72;;;2.75;;
68196;SDS011;55019;49.382;11.358;2023-08-31T07:40:04;3.42;;;2.33;;
68196;SDS011;55019;49.382;11.358;2023-08-31T07:42:34;2.80;;;2.55;;
68196;SDS011;55019;49.382;11.358;2023-08-31T07:45:00;3.90;;;2.15;;
68196;SDS011;55019;49.382;11.358;2023-08-31T07:47:26;3.28;;;2.25;;
68196;SDS011;55019;49.382;11.358;2023-08-31T07:49:51;7.20;;;2.60;;
68196;SDS011;55019;49.382;11.358;2023-08-31T07:52:17;3.08;;;1.92;;
68196;SDS011;55019;49.382;11.358;2023-08-31T07:54:43;3.63;;;2.08;;
68196;SDS011;55019;49.382;11.358;2023-08-31T07:57:08;3.75;;;2.10;;
68196;SDS011;55019;49.382;11.358;2023-08-31T07:59:34;3.08;;;1.77;;
68196;SDS011;55019;49.382;11.358;2023-08-31T08:02:00;3.13;;;1.98;;
68196;SDS011;55019;49.382;11.358;2023-08-31T08:04:25;3.15;;;1.90;;
68196;SDS011;55019;49.382;11.358;2023-08-31T08:06:52;2.85;;;1.80;;
68196;SDS011;55019;49.382;11.358;2023-08-31T08:09:18;3.13;;;1.75;;
68196;SDS011;55019;49.382;11.358;2023-08-31T08:11:43;3.35;;;1.70;;
68196;SDS011;55019;49.382;11.358;2023-08-31T08:14:09;2.70;;;1.73;;
68196;SDS011;55019;49.382;11.358;2023-08-31T08:16:34;2.42;;;1.77;;
68196;SDS011;55019;49.382;11.358;2023-08-31T08:19:01;3.13;;;1.70;;
68196;SDS011;55019;49.382;11.358;2023-08-31T08:21:27;2.50;;;1.58;;
68196;SDS011;55019;49.382;11.358;2023-08-31T08:23:53;1.85;;;1.30;;
68196;SDS011;55019;49.382;11.358;2023-08-31T08:26:18;2.03;;;1.55;;
68196;SDS011;55019;49.382;11.358;2023-08-31T08:28:44;2.58;;;1.17;;
68196;SDS011;55019;49.382;11.358;2023-08-31T08:31:11;1.75;;;1.10;;
68196;SDS011;55019;49.382;11.358;2023-08-31T08:33:37;2.33;;;1.33;;
68196;SDS011;55019;49.382;11.358;2023-08-31T08:36:02;1.88;;;1.23;;
68196;SDS011;55019;49.382;11.358;2023-08-31T08:38:28;1.90;;;0.93;;
68196;SDS011;55019;49.382;11.358;2023-08-31T08:40:54;1.88;;;1.40;;
68196;SDS011;55019;49.382;11.358;2023-08-31T08:43:22;4.00;;;1.27;;
68196;SDS011;55019;49.382;11.358;2023-08-31T08:45:50;3.28;;;1.30;;
68196;SDS011;55019;49.382;11.358;2023-08-31T08:48:17;2.83;;;1.17;;
68196;SDS011;55019;49.382;11.358;2023-08-31T08:50:45;2.22;;;1.02;;
68196;SDS011;55019;49.382;11.358;2023-08-31T08:53:11;4.03;;;1.30;;
68196;SDS011;55019;49.382;11.358;2023-08-31T08:55:40;2.55;;;0.93;;
68196;SDS011;55019;49.382;11.358;2023-08-31T08:58:20;5.82;;;1.30;;
68196;SDS011;55019;49.382;11.358;2023-08-31T09:00:46;2.58;;;1.15;;
68196;SDS011;55019;49.382;11.358;2023-08-31T09:03:13;2.47;;;1.48;;
68196;SDS011;55019;49.382;11.358;2023-08-31T09:05:38;2.60;;;1.08;;
68196;SDS011;55019;49.382;11.358;2023-08-31T09:10:33;3.58;;;1.50;;
68196;SDS011;55019;49.382;11.358;2023-08-31T09:13:00;1.83;;;1.13;;
68196;SDS011;55019;49.382;11.358;2023-08-31T09:15:35;2.42;;;1.15;;
68196;SDS011;55019;49.382;11.358;2023-08-31T09:18:02;4.18;;;1.17;;
68196;SDS011;55019;49.382;11.358;2023-08-31T09:20:28;1.58;;;1.02;;
68196;SDS011;55019;49.382;11.358;2023-08-31T09:22:55;1.92;;;1.30;;
68196;SDS011;55019;49.382;11.358;2023-08-31T09:27:47;1.58;;;0.80;;
68196;SDS011;55019;49.382;11.358;2023-08-31T09:30:14;2.40;;;1.10;;
68196;SDS011;55019;49.382;11.358;2023-08-31T09:32:39;1.27;;;0.73;;
68196;SDS011;55019;49.382;11.358;2023-08-31T09:35:10;2.75;;;0.93;;
68196;SDS011;55019;49.382;11.358;2023-08-31T09:37:36;1.90;;;1.10;;
68196;SDS011;55019;49.382;11.358;2023-08-31T09:40:02;2.28;;;1.20;;
68196;SDS011;55019;49.382;11.358;2023-08-31T09:42:38;1.33;;;0.98;;
68196;SDS011;55019;49.382;11.358;2023-08-31T09:45:04;1.88;;;0.93;;
68196;SDS011;55019;49.382;11.358;2023-08-31T09:47:30;2.95;;;1.00;;
68196;SDS011;55019;49.382;11.358;2023-08-31T09:49:56;1.20;;;0.77;;
68196;SDS011;55019;49.382;11.358;2023-08-31T09:52:24;2.45;;;0.93;;
68196;SDS011;55019;49.382;11.358;2023-08-31T09:54:51;2.10;;;1.08;;
68196;SDS011;55019;49.382;11.358;2023-08-31T09:57:18;1.27;;;0.85;;
68196;SDS011;55019;49.382;11.358;2023-08-31T09:59:45;1.85;;;1.00;;
68196;SDS011;55019;49.382;11.358;2023-08-31T10:02:12;1.55;;;0.90;;
68196;SDS011;55019;49.382;11.358;2023-08-31T10:04:41;1.83;;;1.17;;
68196;SDS011;55019;49.382;11.358;2023-08-31T10:07:08;2.58;;;0.80;;
68196;SDS011;55019;49.382;11.358;2023-08-31T10:09:35;3.28;;;1.00;;
68196;SDS011;55019;49.382;11.358;2023-08-31T10:12:03;1.95;;;0.93;;
68196;SDS011;55019;49.382;11.358;2023-08-31T10:14:30;1.92;;;0.93;;
68196;SDS011;55019;49.382;11.358;2023-08-31T10:16:55;1.52;;;1.00;;
68196;SDS011;55019;49.382;11.358;2023-08-31T10:19:23;2.45;;;1.10;;
68196;SDS011;55019;49.382;11.358;2023-08-31T10:21:49;3.17;;;1.13;;
68196;SDS011;55019;49.382;11.358;2023-08-31T10:24:15;2.25;;;0.73;;
68196;SDS011;55019;49.382;11.358;2023-08-31T10:26:40;2.88;;;1.20;;
68196;SDS011;55019;49.382;11.358;2023-08-31T10:29:06;1.83;;;0.93;;
68196;SDS011;55019;49.382;11.358;2023-08-31T10:31:51;1.65;;;0.85;;
68196;SDS011;55019;49.382;11.358;2023-08-31T10:34:17;2.55;;;1.05;;
68196;SDS011;55019;49.382;11.358;2023-08-31T10:37:01;2.13;;;1.05;;
68196;SDS011;55019;49.382;11.358;2023-08-31T10:39:37;1.77;;;1.17;;
68196;SDS011;55019;49.382;11.358;2023-08-31T10:42:03;1.35;;;0.85;;
68196;SDS011;55019;49.382;11.358;2023-08-31T10:44:32;2.30;;;1.13;;
68196;SDS011;55019;49.382;11.358;2023-08-31T10:47:00;3.22;;;1.00;;
68196;SDS011;55019;49.382;11.358;2023-08-31T10:49:29;1.48;;;0.90;;
68196;SDS011;55019;49.382;11.358;2023-08-31T10:51:58;1.23;;;0.90;;
68196;SDS011;55019;49.382;11.358;2023-08-31T10:54:46;2.28;;;0.70;;
68196;SDS011;55019;49.382;11.358;2023-08-31T10:57:12;1.15;;;0.75;;
68196;SDS011;55019;49.382;11.358;2023-08-31T11:05:14;1.98;;;0.95;;
68196;SDS011;55019;49.382;11.358;2023-08-31T11:07:41;2.75;;;1.00;;
68196;SDS011;55019;49.382;11.358;2023-08-31T11:10:15;2.63;;;1.13;;
68196;SDS011;55019;49.382;11.358;2023-08-31T11:12:46;1.50;;;0.90;;
68196;SDS011;55019;49.382;11.358;2023-08-31T11:15:13;1.98;;;0.85;;
68196;SDS011;55019;49.382;11.358;2023-08-31T11:17:41;4.07;;;1.10;;
68196;SDS011;55019;49.382;11.358;2023-08-31T11:20:14;2.60;;;1.10;;
68196;SDS011;55019;49.382;11.358;2023-08-31T11:22:43;1.63;;;0.90;;
68196;SDS011;55019;49.382;11.358;2023-08-31T11:27:36;2.15;;;1.30;;
68196;SDS011;55019;49.382;11.358;2023-08-31T11:30:03;1.55;;;1.10;;
68196;SDS011;55019;49.382;11.358;2023-08-31T11:32:36;3.35;;;1.02;;
68196;SDS011;55019;49.382;11.358;2023-08-31T11:35:02;1.77;;;0.95;;
68196;SDS011;55019;49.382;11.358;2023-08-31T11:37:29;1.50;;;1.08;;
68196;SDS011;55019;49.382;11.358;2023-08-31T11:39:54;2.65;;;1.05;;
68196;SDS011;55019;49.382;11.358;2023-08-31T11:42:21;1.33;;;0.90;;
68196;SDS011;55019;49.382;11.358;2023-08-31T11:44:47;1.75;;;0.90;;
68196;SDS011;55019;49.382;11.358;2023-08-31T11:47:15;1.02;;;0.60;;
68196;SDS011;55019;49.382;11.358;2023-08-31T11:49:41;1.50;;;1.00;;
68196;SDS011;55019;49.382;11.358;2023-08-31T11:52:11;2.92;;;0.90;;
68196;SDS011;55019;49.382;11.358;2023-08-31T11:54:38;2.35;;;0.90;;
68196;SDS011;55019;49.382;11.358;2023-08-31T11:57:08;1.42;;;0.98;;
68196;SDS011;55019;49.382;11.358;2023-08-31T11:59:35;1.88;;;0.88;;
68196;SDS011;55019;49.382;11.358;2023-08-31T12:02:05;1.98;;;0.90;;
68196;SDS011;55019;49.382;11.358;2023-08-31T12:04:32;1.35;;;0.88;;
68196;SDS011;55019;49.382;11.358;2023-08-31T12:07:02;2.00;;;0.95;;
68196;SDS011;55019;49.382;11.358;2023-08-31T12:11:57;1.92;;;0.80;;
68196;SDS011;55019;49.382;11.358;2023-08-31T12:14:24;2.53;;;1.30;;
68196;SDS011;55019;49.382;11.358;2023-08-31T12:16:52;1.70;;;1.00;;
68196;SDS011;55019;49.382;11.358;2023-08-31T12:19:26;2.45;;;1.33;;
68196;SDS011;55019;49.382;11.358;2023-08-31T12:21:52;1.75;;;0.93;;
68196;SDS011;55019;49.382;11.358;2023-08-31T12:24:18;1.85;;;0.90;;
68196;SDS011;55019;49.382;11.358;2023-08-31T12:26:44;2.33;;;0.98;;
68196;SDS011;55019;49.382;11.358;2023-08-31T12:29:10;2.25;;;0.90;;
68196;SDS011;55019;49.382;11.358;2023-08-31T12:31:36;2.65;;;0.90;;
68196;SDS011;55019;49.382;11.358;2023-08-31T12:34:01;1.67;;;0.95;;
68196;SDS011;55019;49.382;11.358;2023-08-31T12:36:30;2.17;;;1.33;;
68196;SDS011;55019;49.382;11.358;2023-08-31T12:38:56;2.10;;;1.15;;
68196;SDS011;55019;49.382;11.358;2023-08-31T12:41:24;1.00;;;0.73;;
68196;SDS011;55019;49.382;11.358;2023-08-31T12:43:49;0.95;;;0.55;;
68196;SDS011;55019;49.382;11.358;2023-08-31T12:46:15;1.40;;;0.73;;
68196;SDS011;55019;49.382;11.358;2023-08-31T12:48:42;2.38;;;0.90;;
68196;SDS011;55019;49.382;11.358;2023-08-31T12:51:07;2.92;;;1.00;;
68196;SDS011;55019;49.382;11.358;2023-08-31T12:53:37;2.38;;;0.95;;
68196;SDS011;55019;49.382;11.358;2023-08-31T12:56:03;1.90;;;0.88;;
68196;SDS011;55019;49.382;11.358;2023-08-31T12:58:29;1.02;;;0.75;;
68196;SDS011;55019;49.382;11.358;2023-08-31T13:00:57;2.22;;;0.90;;
68196;SDS011;55019;49.382;11.358;2023-08-31T13:03:26;3.35;;;0.82;;
68196;SDS011;55019;49.382;11.358;2023-08-31T13:05:52;2.72;;;0.90;;
68196;SDS011;55019;49.382;11.358;2023-08-31T13:08:17;2.03;;;0.68;;
68196;SDS011;55019;49.382;11.358;2023-08-31T13:10:43;1.20;;;0.75;;
68196;SDS011;55019;49.382;11.358;2023-08-31T13:13:16;1.90;;;0.80;;
68196;SDS011;55019;49.382;11.358;2023-08-31T13:15:42;3.30;;;0.75;;
68196;SDS011;55019;49.382;11.358;2023-08-31T13:18:07;1.05;;;0.80;;
68196;SDS011;55019;49.382;11.358;2023-08-31T13:20:33;1.30;;;0.70;;
68196;SDS011;55019;49.382;11.358;2023-08-31T13:23:01;2.40;;;0.80;;
68196;SDS011;55019;49.382;11.358;2023-08-31T13:25:28;2.28;;;0.75;;
68196;SDS011;55019;49.382;11.358;2023-08-31T13:27:54;1.88;;;1.08;;
68196;SDS011;55019;49.382;11.358;2023-08-31T13:30:19;1.80;;;0.80;;
68196;SDS011;55019;49.382;11.358;2023-08-31T13:32:45;1.80;;;1.05;;
68196;SDS011;55019;49.382;11.358;2023-08-31T13:35:11;1.48;;;0.73;;
68196;SDS011;55019;49.382;11.358;2023-08-31T13:37:36;2.08;;;0.85;;
68196;SDS011;55019;49.382;11.358;2023-08-31T13:40:02;3.53;;;0.80;;
68196;SDS011;55019;49.382;11.358;2023-08-31T13:42:33;2.67;;;0.82;;
68196;SDS011;55019;49.382;11.358;2023-08-31T13:45:01;0.82;;;0.60;;
68196;SDS011;55019;49.382;11.358;2023-08-31T13:47:28;3.17;;;0.85;;
68196;SDS011;55019;49.382;11.358;2023-08-31T13:49:54;1.73;;;0.70;;
68196;SDS011;55019;49.382;11.358;2023-08-31T13:52:20;2.30;;;0.90;;
68196;SDS011;55019;49.382;11.358;2023-08-31T13:54:46;2.10;;;0.80;;
68196;SDS011;55019;49.382;11.358;2023-08-31T13:57:12;1.52;;;0.73;;
68196;SDS011;55019;49.382;11.358;2023-08-31T13:59:43;1.33;;;0.70;;
68196;SDS011;55019;49.382;11.358;2023-08-31T14:02:09;1.30;;;0.68;;
68196;SDS011;55019;49.382;11.358;2023-08-31T14:04:35;2.25;;;0.90;;
68196;SDS011;55019;49.382;11.358;2023-08-31T14:07:00;2.22;;;0.90;;
68196;SDS011;55019;49.382;11.358;2023-08-31T14:09:27;1.88;;;0.68;;
68196;SDS011;55019;49.382;11.358;2023-08-31T14:11:53;3.10;;;1.30;;
68196;SDS011;55019;49.382;11.358;2023-08-31T14:14:20;3.05;;;0.75;;
68196;SDS011;55019;49.382;11.358;2023-08-31T14:16:47;2.08;;;0.63;;
68196;SDS011;55019;49.382;11.358;2023-08-31T14:19:13;2.03;;;0.75;;
68196;SDS011;55019;49.382;11.358;2023-08-31T14:21:39;1.10;;;0.68;;
68196;SDS011;55019;49.382;11.358;2023-08-31T14:24:05;1.67;;;0.73;;
68196;SDS011;55019;49.382;11.358;2023-08-31T14:26:31;1.60;;;0.70;;
68196;SDS011;55019;49.382;11.358;2023-08-31T14:28:57;1.90;;;0.68;;
68196;SDS011;55019;49.382;11.358;2023-08-31T14:31:22;2.35;;;0.90;;
68196;SDS011;55019;49.382;11.358;2023-08-31T14:33:48;1.02;;;0.50;;
68196;SDS011;55019;49.382;11.358;2023-08-31T14:36:15;1.98;;;0.77;;
68196;SDS011;55019;49.382;11.358;2023-08-31T14:38:44;2.10;;;0.80;;
68196;SDS011;55019;49.382;11.358;2023-08-31T14:41:11;1.95;;;0.70;;
68196;SDS011;55019;49.382;11.358;2023-08-31T14:43:36;1.90;;;0.70;;
68196;SDS011;55019;49.382;11.358;2023-08-31T14:46:02;2.45;;;0.82;;
68196;SDS011;55019;49.382;11.358;2023-08-31T14:48:32;1.05;;;0.50;;
68196;SDS011;55019;49.382;11.358;2023-08-31T14:50:58;2.05;;;0.75;;
68196;SDS011;55019;49.382;11.358;2023-08-31T14:53:27;2.30;;;0.80;;
68196;SDS011;55019;49.382;11.358;2023-08-31T14:55:53;3.53;;;0.82;;
68196;SDS011;55019;49.382;11.358;2023-08-31T14:58:18;3.22;;;0.93;;
68196;SDS011;55019;49.382;11.358;2023-08-31T15:00:44;0.90;;;0.52;;
68196;SDS011;55019;49.382;11.358;2023-08-31T15:03:11;3.00;;;0.80;;
68196;SDS011;55019;49.382;11.358;2023-08-31T15:05:37;1.50;;;0.80;;
68196;SDS011;55019;49.382;11.358;2023-08-31T15:08:03;2.45;;;0.95;;